createdAt,value
2019-02-17T00:00:28.713Z,71.31
2019-02-17T00:01:09.314Z,71.11
2019-02-17T00:01:49.973Z,71.02
2019-02-17T00:02:30.560Z,71.11
2019-02-17T00:03:11.377Z,71.11
2019-02-17T00:03:51.973Z,71.11
2019-02-17T00:04:32.617Z,71.21
2019-02-17T00:05:13.231Z,70.64
2019-02-17T00:05:53.828Z,70.64
2019-02-17T00:06:34.432Z,70.92
2019-02-17T00:07:15.023Z,71.02
2019-02-17T00:07:55.647Z,70.64
2019-02-17T00:08:36.237Z,71.11
2019-02-17T00:09:16.835Z,71.02
2019-02-17T00:09:57.433Z,71.11
2019-02-17T00:10:38.036Z,70.92
2019-02-17T00:11:18.655Z,70.64
2019-02-17T00:11:59.255Z,70.64
2019-02-17T00:12:39.917Z,70.44
2019-02-17T00:13:20.737Z,70.35
2019-02-17T00:14:01.345Z,70.25
2019-02-17T00:14:41.953Z,70.25
2019-02-17T00:15:22.569Z,70.25
2019-02-17T00:16:03.251Z,70.25
2019-02-17T00:16:43.828Z,70.44
2019-02-17T00:17:24.432Z,70.25
2019-02-17T00:18:05.055Z,70.25
2019-02-17T00:18:45.706Z,70.44
2019-02-17T00:19:26.337Z,70.41
2019-02-17T00:20:08.095Z,70.35
2019-02-17T00:20:47.579Z,70.35
2019-02-17T00:21:28.395Z,70.25
2019-02-17T00:22:08.990Z,70.25
2019-02-17T00:22:49.587Z,70.41
2019-02-17T00:23:30.177Z,70.25
2019-02-17T00:24:10.867Z,70.35
2019-02-17T00:24:52.145Z,70.54
2019-02-17T00:25:32.910Z,70.41
2019-02-17T00:26:13.997Z,70.73
2019-02-17T00:26:55.991Z,70.64
2019-02-17T00:27:36.611Z,70.73
2019-02-17T00:28:17.219Z,70.73
2019-02-17T00:28:59.630Z,70.64
2019-02-17T00:29:39.039Z,70.54
2019-02-17T00:30:19.628Z,70.54
2019-02-17T00:31:00.230Z,70.15
2019-02-17T00:31:41.034Z,70.64
2019-02-17T00:32:21.663Z,70.64
2019-02-17T00:33:02.255Z,70.73
2019-02-17T00:33:42.877Z,70.35
2019-02-17T00:34:23.517Z,70.64
2019-02-17T00:35:04.114Z,70.64
2019-02-17T00:35:44.733Z,70.64
2019-02-17T00:36:25.449Z,70.35
2019-02-17T00:37:06.021Z,70.44
2019-02-17T00:37:46.628Z,70.54
2019-02-17T00:38:27.357Z,70.15
2019-02-17T00:39:07.937Z,70.35
2019-02-17T00:39:48.543Z,70.25
2019-02-17T00:40:29.137Z,70.44
2019-02-17T00:41:09.737Z,70.44
2019-02-17T00:41:50.351Z,70.44
2019-02-17T00:42:30.931Z,70.64
2019-02-17T00:43:11.515Z,70.83
2019-02-17T00:43:52.109Z,70.54
2019-02-17T00:44:32.693Z,70.54
2019-02-17T00:45:13.293Z,70.06
2019-02-17T00:45:53.919Z,70.54
2019-02-17T00:46:34.499Z,70.64
2019-02-17T00:47:15.101Z,70.54
2019-02-17T00:47:55.691Z,69.96
2019-02-17T00:48:36.313Z,70.54
2019-02-17T00:49:16.905Z,70.64
2019-02-17T00:49:57.525Z,70.44
2019-02-17T00:50:38.117Z,70.64
2019-02-17T00:51:18.709Z,70.54
2019-02-17T00:51:59.305Z,69.96
2019-02-17T00:52:39.881Z,70.54
2019-02-17T00:53:20.479Z,70.35
2019-02-17T00:54:01.097Z,70.21
2019-02-17T00:54:41.743Z,70.35
2019-02-17T00:55:22.345Z,69.96
2019-02-17T00:56:02.968Z,69.93
2019-02-17T00:56:43.581Z,70.15
2019-02-17T00:57:24.181Z,70.12
2019-02-17T00:58:04.778Z,70.25
2019-02-17T00:58:45.407Z,69.96
2019-02-17T00:59:25.992Z,70.6
2019-02-17T01:00:06.596Z,70.25
2019-02-17T01:00:47.201Z,70.64
2019-02-17T01:01:27.795Z,70.25
2019-02-17T01:02:08.420Z,70.15
2019-02-17T01:02:49.060Z,70.35
2019-02-17T01:03:29.703Z,70.35
2019-02-17T01:04:10.290Z,69.87
2019-02-17T01:04:50.877Z,69.77
2019-02-17T01:05:31.484Z,70.35
2019-02-17T01:06:12.084Z,70.25
2019-02-17T01:06:52.691Z,69.77
2019-02-17T01:07:33.309Z,69.77
2019-02-17T01:08:13.979Z,69.58
2019-02-17T01:08:54.521Z,69.68
2019-02-17T01:09:35.119Z,69.68
2019-02-17T01:10:15.725Z,69.77
2019-02-17T01:10:56.328Z,69.87
2019-02-17T01:11:36.918Z,70.06
2019-02-17T01:12:17.523Z,70.25
2019-02-17T01:12:58.137Z,69.83
2019-02-17T01:13:38.744Z,70.06
2019-02-17T01:14:19.328Z,69.87
2019-02-17T01:14:59.938Z,69.48
2019-02-17T01:15:40.530Z,69.68
2019-02-17T01:16:21.150Z,69.68
2019-02-17T01:17:01.737Z,69.68
2019-02-17T01:17:42.318Z,70.06
2019-02-17T01:18:22.945Z,69.68
2019-02-17T01:19:03.537Z,69.87
2019-02-17T01:19:44.133Z,69.87
2019-02-17T01:20:24.740Z,69.64
2019-02-17T01:21:05.334Z,69.87
2019-02-17T01:21:45.928Z,69.68
2019-02-17T01:22:26.504Z,69.74
2019-02-17T01:23:07.094Z,69.87
2019-02-17T01:23:47.707Z,69.77
2019-02-17T01:24:28.316Z,69.96
2019-02-17T01:25:08.922Z,70.25
2019-02-17T01:25:49.518Z,69.96
2019-02-17T01:26:30.106Z,70.12
2019-02-17T01:27:10.752Z,70.12
2019-02-17T01:27:51.356Z,69.96
2019-02-17T01:28:31.970Z,69.96
2019-02-17T01:29:20.017Z,69.93
2019-02-17T01:29:53.180Z,69.93
2019-02-17T01:30:33.778Z,70.06
2019-02-17T01:31:14.367Z,69.96
2019-02-17T01:31:54.988Z,69.96
2019-02-17T01:32:35.633Z,70.12
2019-02-17T01:33:16.214Z,69.83
2019-02-17T01:33:56.794Z,70.35
2019-02-17T01:34:37.386Z,69.74
2019-02-17T01:35:17.980Z,69.77
2019-02-17T01:35:58.613Z,70.03
2019-02-17T01:36:39.224Z,69.87
2019-02-17T01:37:19.808Z,70.15
2019-02-17T01:38:00.392Z,70.15
2019-02-17T01:38:40.986Z,70.15
2019-02-17T01:39:21.698Z,70.12
2019-02-17T01:40:02.305Z,69.77
2019-02-17T01:40:42.900Z,69.77
2019-02-17T01:41:23.497Z,69.64
2019-02-17T01:42:04.089Z,69.74
2019-02-17T01:42:44.670Z,70.12
2019-02-17T01:43:25.281Z,69.45
2019-02-17T01:44:05.876Z,69.83
2019-02-17T01:44:46.467Z,69.93
2019-02-17T01:45:27.062Z,69.74
2019-02-17T01:46:07.651Z,69.45
2019-02-17T01:46:48.244Z,69.74
2019-02-17T01:47:28.857Z,69.64
2019-02-17T01:48:09.446Z,69.74
2019-02-17T01:48:50.081Z,69.74
2019-02-17T01:49:30.682Z,69.68
2019-02-17T01:50:11.283Z,69.93
2019-02-17T01:50:51.924Z,69.93
2019-02-17T01:51:32.537Z,69.74
2019-02-17T01:52:13.131Z,69.54
2019-02-17T01:52:53.719Z,69.93
2019-02-17T01:53:34.345Z,69.64
2019-02-17T01:54:14.931Z,69.93
2019-02-17T01:54:55.538Z,69.93
2019-02-17T01:55:36.122Z,69.87
2019-02-17T01:56:16.725Z,69.54
2019-02-17T01:56:57.317Z,70.03
2019-02-17T01:57:37.905Z,69.77
2019-02-17T01:58:18.505Z,70.03
2019-02-17T01:58:59.091Z,69.74
2019-02-17T01:59:39.705Z,69.17
2019-02-17T02:00:20.295Z,69.54
2019-02-17T02:01:00.881Z,69.54
2019-02-17T02:01:41.485Z,69.54
2019-02-17T02:02:22.093Z,69.54
2019-02-17T02:03:02.702Z,69.54
2019-02-17T02:03:43.335Z,69.35
2019-02-17T02:04:23.914Z,69.64
2019-02-17T02:05:04.502Z,69.93
2019-02-17T02:05:45.107Z,69.74
2019-02-17T02:06:25.706Z,69.64
2019-02-17T02:07:06.313Z,69.54
2019-02-17T02:07:46.903Z,69.54
2019-02-17T02:08:27.550Z,69.45
2019-02-17T02:09:08.085Z,69.35
2019-02-17T02:09:48.678Z,69.35
2019-02-17T02:10:29.261Z,69.45
2019-02-17T02:11:09.848Z,69.74
2019-02-17T02:11:50.432Z,68.78
2019-02-17T02:12:31.030Z,69.35
2019-02-17T02:13:11.642Z,69.45
2019-02-17T02:13:52.244Z,69.48
2019-02-17T02:14:32.842Z,69.83
2019-02-17T02:15:13.477Z,69.26
2019-02-17T02:15:54.036Z,68.59
2019-02-17T02:16:34.622Z,69.35
2019-02-17T02:17:15.220Z,68.97
2019-02-17T02:17:55.844Z,68.78
2019-02-17T02:18:36.453Z,68.97
2019-02-17T02:19:17.067Z,68.78
2019-02-17T02:19:57.672Z,69.26
2019-02-17T02:20:38.264Z,69.26
2019-02-17T02:21:18.878Z,68.97
2019-02-17T02:21:59.472Z,69.26
2019-02-17T02:22:40.070Z,68.87
2019-02-17T02:23:20.673Z,68.97
2019-02-17T02:24:01.292Z,69.07
2019-02-17T02:24:41.894Z,68.97
2019-02-17T02:25:22.472Z,68.87
2019-02-17T02:26:03.075Z,69.07
2019-02-17T02:26:43.684Z,68.97
2019-02-17T02:27:24.278Z,69.07
2019-02-17T02:28:04.878Z,69.07
2019-02-17T02:28:45.493Z,69.07
2019-02-17T02:29:26.090Z,69.07
2019-02-17T02:30:06.698Z,68.97
2019-02-17T02:30:47.288Z,69.17
2019-02-17T02:31:27.913Z,68.87
2019-02-17T02:32:08.505Z,68.78
2019-02-17T02:32:49.097Z,68.97
2019-02-17T02:33:29.710Z,68.78
2019-02-17T02:34:10.300Z,68.87
2019-02-17T02:34:50.897Z,68.68
2019-02-17T02:35:31.509Z,68.87
2019-02-17T02:36:12.101Z,68.87
2019-02-17T02:36:52.696Z,69.07
2019-02-17T02:37:33.301Z,68.87
2019-02-17T02:38:13.934Z,69.17
2019-02-17T02:38:54.534Z,69.17
2019-02-17T02:39:35.136Z,68.78
2019-02-17T02:40:15.732Z,69.07
2019-02-17T02:40:56.338Z,68.87
2019-02-17T02:41:36.939Z,68.68
2019-02-17T02:42:17.525Z,68.87
2019-02-17T02:42:58.121Z,68.78
2019-02-17T02:43:38.713Z,68.68
2019-02-17T02:44:19.347Z,69.07
2019-02-17T02:44:59.935Z,68.87
2019-02-17T02:45:40.523Z,68.87
2019-02-17T02:46:21.117Z,68.87
2019-02-17T02:47:01.709Z,68.97
2019-02-17T02:47:42.327Z,69.07
2019-02-17T02:48:22.952Z,69.07
2019-02-17T02:49:03.537Z,68.87
2019-02-17T02:49:44.135Z,68.97
2019-02-17T02:50:24.749Z,68.97
2019-02-17T02:51:05.345Z,68.97
2019-02-17T02:51:45.938Z,68.91
2019-02-17T02:52:26.521Z,68.87
2019-02-17T02:53:07.119Z,68.87
2019-02-17T02:53:47.725Z,68.87
2019-02-17T02:54:28.323Z,68.87
2019-02-17T02:55:08.930Z,68.87
2019-02-17T02:55:49.519Z,69.07
2019-02-17T02:56:30.135Z,69.07
2019-02-17T02:57:10.720Z,69.07
2019-02-17T02:57:51.317Z,69.07
2019-02-17T02:58:31.911Z,69.17
2019-02-17T02:59:12.501Z,68.97
2019-02-17T02:59:53.114Z,68.87
2019-02-17T03:00:33.713Z,68.78
2019-02-17T03:01:14.295Z,69.07
2019-02-17T03:01:54.877Z,69.26
2019-02-17T03:02:35.463Z,68.87
2019-02-17T03:03:16.071Z,69.17
2019-02-17T03:03:56.655Z,68.68
2019-02-17T03:04:37.251Z,68.59
2019-02-17T03:05:17.846Z,68.4
2019-02-17T03:05:58.433Z,68.49
2019-02-17T03:06:39.025Z,68.78
2019-02-17T03:07:19.612Z,68.4
2019-02-17T03:08:00.213Z,68.21
2019-02-17T03:08:40.809Z,68.78
2019-02-17T03:09:21.403Z,68.59
2019-02-17T03:10:01.991Z,68.49
2019-02-17T03:10:42.595Z,68.87
2019-02-17T03:11:23.202Z,68.78
2019-02-17T03:12:03.792Z,69.17
2019-02-17T03:12:44.380Z,68.68
2019-02-17T03:13:24.965Z,68.68
2019-02-17T03:14:05.569Z,68.87
2019-02-17T03:14:46.173Z,68.78
2019-02-17T03:15:26.785Z,68.78
2019-02-17T03:16:07.379Z,68.59
2019-02-17T03:16:48.023Z,68.87
2019-02-17T03:17:28.607Z,68.68
2019-02-17T03:18:09.199Z,68.78
2019-02-17T03:18:49.776Z,68.68
2019-02-17T03:19:30.364Z,68.68
2019-02-17T03:20:10.963Z,68.49
2019-02-17T03:20:51.558Z,68.4
2019-02-17T03:21:32.136Z,69.07
2019-02-17T03:22:12.739Z,68.59
2019-02-17T03:22:53.327Z,68.49
2019-02-17T03:23:33.913Z,68.3
2019-02-17T03:24:14.533Z,68.21
2019-02-17T03:24:55.131Z,68.59
2019-02-17T03:25:35.723Z,68.3
2019-02-17T03:26:16.319Z,68.3
2019-02-17T03:26:56.969Z,68.3
2019-02-17T03:27:37.553Z,68.3
2019-02-17T03:28:18.148Z,68.59
2019-02-17T03:28:58.745Z,68.4
2019-02-17T03:29:39.346Z,68.4
2019-02-17T03:30:19.932Z,68.4
2019-02-17T03:31:00.509Z,68.3
2019-02-17T03:31:41.110Z,68.3
2019-02-17T03:32:21.722Z,68.4
2019-02-17T03:33:02.311Z,68.78
2019-02-17T03:33:42.915Z,68.59
2019-02-17T03:34:23.519Z,68.21
2019-02-17T03:35:04.106Z,68.21
2019-02-17T03:35:44.701Z,68.21
2019-02-17T03:36:25.287Z,68.4
2019-02-17T03:37:05.877Z,68.59
2019-02-17T03:37:46.474Z,68.21
2019-02-17T03:38:27.077Z,68.68
2019-02-17T03:39:07.660Z,68.4
2019-02-17T03:39:48.269Z,68.49
2019-02-17T03:40:28.875Z,68.68
2019-02-17T03:41:09.496Z,68.49
2019-02-17T03:41:50.090Z,68.59
2019-02-17T03:42:30.782Z,68.21
2019-02-17T03:43:26.199Z,68.49
2019-02-17T03:44:06.788Z,68.21
2019-02-17T03:44:47.380Z,68.59
2019-02-17T03:45:27.978Z,68.59
2019-02-17T03:46:08.570Z,68.49
2019-02-17T03:46:49.164Z,68.49
2019-02-17T03:47:29.748Z,68.4
2019-02-17T03:48:10.347Z,68.49
2019-02-17T03:48:50.999Z,68.49
2019-02-17T03:49:31.595Z,68.21
2019-02-17T03:50:12.205Z,68.3
2019-02-17T03:50:52.809Z,68.3
2019-02-17T03:51:33.421Z,68.49
2019-02-17T03:52:14.023Z,68.21
2019-02-17T03:52:54.599Z,68.4
2019-02-17T03:53:35.192Z,68.49
2019-02-17T03:54:15.782Z,68.49
2019-02-17T03:54:56.372Z,68.4
2019-02-17T03:55:36.964Z,68.11
2019-02-17T03:56:17.560Z,68.21
2019-02-17T03:56:58.174Z,68.4
2019-02-17T03:57:38.780Z,68.49
2019-02-17T03:58:19.366Z,68.49
2019-02-17T03:58:59.980Z,68.3
2019-02-17T03:59:40.580Z,68.49
2019-02-17T04:00:21.179Z,68.3
2019-02-17T04:01:01.783Z,68.59
2019-02-17T04:01:42.380Z,68.4
2019-02-17T04:02:22.960Z,68.21
2019-02-17T04:03:03.575Z,68.49
2019-02-17T04:03:44.198Z,68.3
2019-02-17T04:04:24.790Z,68.68
2019-02-17T04:05:05.407Z,68.49
2019-02-17T04:05:46.000Z,68.21
2019-02-17T04:06:26.612Z,68.3
2019-02-17T04:07:07.207Z,68.3
2019-02-17T04:07:47.801Z,68.59
2019-02-17T04:08:28.398Z,68.59
2019-02-17T04:09:08.991Z,68.68
2019-02-17T04:09:50.043Z,68.49
2019-02-17T04:10:30.629Z,68.4
2019-02-17T04:11:11.225Z,68.68
2019-02-17T04:11:51.820Z,68.59
2019-02-17T04:12:32.419Z,68.68
2019-02-17T04:13:13.036Z,68.49
2019-02-17T04:13:53.621Z,68.11
2019-02-17T04:14:34.233Z,68.49
2019-02-17T04:15:14.824Z,68.49
2019-02-17T04:15:55.452Z,68.49
2019-02-17T04:16:36.064Z,68.4
2019-02-17T04:17:16.658Z,68.49
2019-02-17T04:17:57.283Z,68.49
2019-02-17T04:18:37.889Z,68.49
2019-02-17T04:19:18.480Z,68.3
2019-02-17T04:19:59.073Z,68.3
2019-02-17T04:20:39.663Z,68.59
2019-02-17T04:21:20.255Z,68.59
2019-02-17T04:22:00.837Z,68.59
2019-02-17T04:22:41.461Z,68.59
2019-02-17T04:23:30.712Z,68.3
2019-02-17T04:24:02.626Z,68.78
2019-02-17T04:24:43.206Z,68.78
2019-02-17T04:25:23.791Z,68.78
2019-02-17T04:26:04.413Z,68.78
2019-02-17T04:26:45.012Z,68.11
2019-02-17T04:27:25.625Z,68.21
2019-02-17T04:28:06.209Z,68.49
2019-02-17T04:28:46.817Z,68.3
2019-02-17T04:29:27.412Z,68.21
2019-02-17T04:30:08.002Z,68.21
2019-02-17T04:30:48.636Z,68.21
2019-02-17T04:31:29.236Z,68.3
2019-02-17T04:32:09.837Z,68.4
2019-02-17T04:32:50.469Z,68.3
2019-02-17T04:33:31.087Z,68.01
2019-02-17T04:34:11.720Z,68.21
2019-02-17T04:34:52.325Z,67.91
2019-02-17T04:35:32.923Z,67.91
2019-02-17T04:36:13.532Z,68.11
2019-02-17T04:36:54.125Z,67.82
2019-02-17T04:37:34.710Z,68.21
2019-02-17T04:38:15.305Z,68.3
2019-02-17T04:38:55.941Z,68.3
2019-02-17T04:39:36.533Z,68.21
2019-02-17T04:40:17.110Z,68.01
2019-02-17T04:40:57.712Z,68.21
2019-02-17T04:41:38.324Z,68.11
2019-02-17T04:42:18.919Z,68.11
2019-02-17T04:42:59.505Z,68.21
2019-02-17T04:43:40.087Z,68.11
2019-02-17T04:44:20.723Z,68.21
2019-02-17T04:45:01.324Z,68.21
2019-02-17T04:45:41.955Z,68.11
2019-02-17T04:46:22.575Z,68.21
2019-02-17T04:47:03.183Z,68.21
2019-02-17T04:47:43.815Z,68.11
2019-02-17T04:48:24.444Z,68.11
2019-02-17T04:49:05.043Z,68.21
2019-02-17T04:49:45.651Z,68.11
2019-02-17T04:50:26.240Z,68.21
2019-02-17T04:51:06.839Z,68.11
2019-02-17T04:51:47.440Z,68.11
2019-02-17T04:52:28.039Z,68.01
2019-02-17T04:53:08.635Z,68.21
2019-02-17T04:53:49.225Z,68.21
2019-02-17T04:54:29.825Z,68.21
2019-02-17T04:55:10.457Z,68.01
2019-02-17T04:55:51.046Z,68.11
2019-02-17T04:56:31.629Z,68.11
2019-02-17T04:57:12.229Z,68.11
2019-02-17T04:57:52.836Z,68.21
2019-02-17T04:58:33.435Z,68.21
2019-02-17T04:59:14.047Z,68.11
2019-02-17T04:59:54.651Z,68.11
2019-02-17T05:00:39.969Z,68.11
2019-02-17T05:01:15.852Z,68.11
2019-02-17T05:01:56.439Z,68.01
2019-02-17T05:02:37.039Z,68.21
2019-02-17T05:03:17.656Z,68.01
2019-02-17T05:03:58.247Z,68.21
2019-02-17T05:04:38.839Z,68.21
2019-02-17T05:05:19.423Z,68.01
2019-02-17T05:06:00.027Z,68.01
2019-02-17T05:06:40.928Z,68.01
2019-02-17T05:07:21.263Z,68.21
2019-02-17T05:08:01.820Z,68.01
2019-02-17T05:08:42.435Z,68.21
2019-02-17T05:09:23.023Z,68.01
2019-02-17T05:10:03.629Z,68.01
2019-02-17T05:10:44.282Z,68.3
2019-02-17T05:11:24.881Z,68.01
2019-02-17T05:12:05.499Z,68.21
2019-02-17T05:12:46.198Z,68.01
2019-02-17T05:13:26.793Z,68.01
2019-02-17T05:14:07.411Z,68.21
2019-02-17T05:14:47.993Z,68.11
2019-02-17T05:15:28.611Z,68.21
2019-02-17T05:16:09.217Z,68.11
2019-02-17T05:16:49.803Z,68.21
2019-02-17T05:17:30.392Z,68.3
2019-02-17T05:18:10.992Z,68.21
2019-02-17T05:18:51.643Z,68.3
2019-02-17T05:19:32.260Z,68.11
2019-02-17T05:20:12.853Z,68.3
2019-02-17T05:20:53.461Z,68.4
2019-02-17T05:21:34.058Z,68.3
2019-02-17T05:22:14.643Z,68.3
2019-02-17T05:22:55.239Z,68.11
2019-02-17T05:23:35.831Z,68.11
2019-02-17T05:24:16.446Z,68.11
2019-02-17T05:24:57.041Z,68.11
2019-02-17T05:25:37.628Z,68.11
2019-02-17T05:26:18.222Z,68.11
2019-02-17T05:26:58.815Z,68.49
2019-02-17T05:27:39.405Z,68.11
2019-02-17T05:28:20.011Z,68.11
2019-02-17T05:29:00.605Z,68.11
2019-02-17T05:29:41.217Z,68.49
2019-02-17T05:30:21.805Z,68.11
2019-02-17T05:31:02.399Z,68.01
2019-02-17T05:31:42.987Z,68.21
2019-02-17T05:32:23.593Z,68.3
2019-02-17T05:33:04.193Z,68.01
2019-02-17T05:33:44.801Z,68.4
2019-02-17T05:34:25.399Z,68.11
2019-02-17T05:35:06.015Z,68.3
2019-02-17T05:35:46.618Z,68.11
2019-02-17T05:36:27.283Z,68.49
2019-02-17T05:37:07.889Z,68.4
2019-02-17T05:37:48.501Z,68.21
2019-02-17T05:38:29.121Z,68.11
2019-02-17T05:39:09.721Z,68.11
2019-02-17T05:39:50.317Z,68.21
2019-02-17T05:40:30.931Z,68.11
2019-02-17T05:41:11.524Z,68.11
2019-02-17T05:41:52.116Z,68.11
2019-02-17T05:42:32.755Z,68.49
2019-02-17T05:43:13.338Z,68.49
2019-02-17T05:43:53.929Z,68.11
2019-02-17T05:44:34.543Z,68.11
2019-02-17T05:45:15.151Z,68.11
2019-02-17T05:45:55.790Z,68.11
2019-02-17T05:46:36.402Z,68.4
2019-02-17T05:47:17.007Z,68.11
2019-02-17T05:47:57.593Z,68.11
2019-02-17T05:48:38.209Z,68.01
2019-02-17T05:49:18.804Z,68.49
2019-02-17T05:49:59.431Z,68.01
2019-02-17T05:50:40.028Z,68.59
2019-02-17T05:51:20.622Z,68.3
2019-02-17T05:52:01.215Z,68.4
2019-02-17T05:52:41.799Z,68.49
2019-02-17T05:53:22.391Z,67.72
2019-02-17T05:54:02.984Z,68.3
2019-02-17T05:54:43.607Z,68.3
2019-02-17T05:55:24.238Z,68.3
2019-02-17T05:56:04.938Z,67.63
2019-02-17T05:56:45.452Z,67.91
2019-02-17T05:57:26.051Z,67.72
2019-02-17T05:58:06.653Z,68.4
2019-02-17T05:58:47.305Z,68.21
2019-02-17T05:59:27.903Z,67.63
2019-02-17T06:00:08.535Z,68.21
2019-02-17T06:00:49.183Z,67.82
2019-02-17T06:01:29.762Z,67.91
2019-02-17T06:02:10.363Z,67.91
2019-02-17T06:02:50.948Z,67.63
2019-02-17T06:03:31.533Z,67.91
2019-02-17T06:04:12.136Z,67.82
2019-02-17T06:04:52.733Z,67.91
2019-02-17T06:05:33.333Z,67.82
2019-02-17T06:06:14.964Z,67.91
2019-02-17T06:06:54.595Z,67.91
2019-02-17T06:07:35.187Z,67.72
2019-02-17T06:08:15.803Z,67.91
2019-02-17T06:08:56.408Z,67.72
2019-02-17T06:09:37.024Z,67.63
2019-02-17T06:10:17.610Z,67.91
2019-02-17T06:10:58.202Z,67.82
2019-02-17T06:11:38.830Z,67.82
2019-02-17T06:12:20.106Z,67.91
2019-02-17T06:13:00.707Z,67.91
2019-02-17T06:13:41.287Z,67.82
2019-02-17T06:14:21.887Z,67.82
2019-02-17T06:15:02.487Z,68.01
2019-02-17T06:15:43.084Z,67.91
2019-02-17T06:16:23.679Z,67.54
2019-02-17T06:17:04.292Z,67.54
2019-02-17T06:17:44.890Z,67.63
2019-02-17T06:18:25.563Z,67.91
2019-02-17T06:19:06.206Z,67.63
2019-02-17T06:19:46.800Z,67.72
2019-02-17T06:20:27.393Z,67.91
2019-02-17T06:21:07.981Z,67.91
2019-02-17T06:21:48.598Z,68.01
2019-02-17T06:22:29.215Z,68.01
2019-02-17T06:23:09.820Z,67.63
2019-02-17T06:23:50.468Z,68.01
2019-02-17T06:24:31.060Z,67.82
2019-02-17T06:25:11.661Z,67.72
2019-02-17T06:25:52.256Z,67.91
2019-02-17T06:26:32.873Z,68.01
2019-02-17T06:27:13.484Z,67.91
2019-02-17T06:27:54.068Z,67.72
2019-02-17T06:28:34.661Z,67.54
2019-02-17T06:29:15.284Z,67.91
2019-02-17T06:29:55.924Z,68.01
2019-02-17T06:30:36.530Z,68.01
2019-02-17T06:31:17.132Z,68.01
2019-02-17T06:31:57.740Z,67.91
2019-02-17T06:32:38.350Z,68.11
2019-02-17T06:33:18.944Z,67.63
2019-02-17T06:33:59.535Z,67.63
2019-02-17T06:34:40.136Z,67.54
2019-02-17T06:35:20.752Z,67.54
2019-02-17T06:36:01.347Z,67.54
2019-02-17T06:36:41.953Z,67.44
2019-02-17T06:37:22.566Z,67.63
2019-02-17T06:38:03.153Z,67.72
2019-02-17T06:38:43.787Z,67.72
2019-02-17T06:39:24.381Z,68.01
2019-02-17T06:40:04.966Z,67.54
2019-02-17T06:40:45.561Z,67.63
2019-02-17T06:41:26.158Z,67.44
2019-02-17T06:42:06.748Z,67.44
2019-02-17T06:42:47.359Z,67.63
2019-02-17T06:43:27.955Z,67.34
2019-02-17T06:44:08.550Z,67.63
2019-02-17T06:44:49.140Z,67.34
2019-02-17T06:45:29.755Z,67.63
2019-02-17T06:46:10.358Z,67.72
2019-02-17T06:46:50.940Z,67.54
2019-02-17T06:47:31.534Z,67.54
2019-02-17T06:48:12.120Z,67.34
2019-02-17T06:48:52.710Z,67.91
2019-02-17T06:49:33.302Z,67.82
2019-02-17T06:50:13.936Z,67.63
2019-02-17T06:50:54.560Z,67.54
2019-02-17T06:51:35.136Z,67.63
2019-02-17T06:52:15.754Z,67.63
2019-02-17T06:52:56.350Z,67.63
2019-02-17T06:53:36.958Z,67.44
2019-02-17T06:54:17.548Z,67.72
2019-02-17T06:54:58.148Z,67.72
2019-02-17T06:55:38.750Z,67.63
2019-02-17T06:56:19.356Z,67.72
2019-02-17T06:57:00.563Z,67.44
2019-02-17T06:57:41.188Z,67.05
2019-02-17T06:58:21.770Z,67.05
2019-02-17T06:59:02.426Z,66.96
2019-02-17T06:59:43.039Z,67.34
2019-02-17T07:00:23.699Z,66.86
2019-02-17T07:01:04.327Z,66.86
2019-02-17T07:01:45.126Z,66.86
2019-02-17T07:02:25.741Z,67.44
2019-02-17T07:03:06.368Z,67.34
2019-02-17T07:03:46.956Z,67.05
2019-02-17T07:04:27.612Z,67.15
2019-02-17T07:05:08.227Z,67.05
2019-02-17T07:05:48.809Z,66.96
2019-02-17T07:06:29.410Z,66.96
2019-02-17T07:07:10.026Z,66.86
2019-02-17T07:07:50.624Z,66.86
2019-02-17T07:08:31.198Z,67.15
2019-02-17T07:09:12.157Z,67.15
2019-02-17T07:09:52.748Z,67.15
2019-02-17T07:10:33.338Z,67.15
2019-02-17T07:11:13.943Z,67.15
2019-02-17T07:11:56.711Z,67.05
2019-02-17T07:12:35.098Z,67.15
2019-02-17T07:13:15.687Z,67.15
2019-02-17T07:13:56.300Z,67.05
2019-02-17T07:14:38.391Z,67.05
2019-02-17T07:15:17.788Z,66.67
2019-02-17T07:15:58.384Z,66.86
2019-02-17T07:16:38.982Z,66.96
2019-02-17T07:17:19.594Z,66.48
2019-02-17T07:18:00.199Z,66.67
2019-02-17T07:18:40.801Z,66.48
2019-02-17T07:19:21.411Z,66.48
2019-02-17T07:20:02.004Z,66.67
2019-02-17T07:20:42.603Z,66.67
2019-02-17T07:21:23.207Z,67.05
2019-02-17T07:22:03.801Z,66.67
2019-02-17T07:22:44.407Z,66.96
2019-02-17T07:23:25.010Z,66.58
2019-02-17T07:24:05.602Z,66.58
2019-02-17T07:24:46.203Z,66.77
2019-02-17T07:25:29.912Z,66.38
2019-02-17T07:26:07.405Z,66.58
2019-02-17T07:26:48.000Z,66.38
2019-02-17T07:27:28.588Z,66.48
2019-02-17T07:28:09.170Z,66.48
2019-02-17T07:28:49.778Z,66.48
2019-02-17T07:29:30.353Z,67.05
2019-02-17T07:30:10.944Z,66.96
2019-02-17T07:30:51.544Z,67.05
2019-02-17T07:31:34.783Z,66.86
2019-02-17T07:32:12.719Z,66.86
2019-02-17T07:32:53.317Z,66.86
2019-02-17T07:33:33.911Z,66.86
2019-02-17T07:34:14.512Z,66.58
2019-02-17T07:34:55.098Z,66.77
2019-02-17T07:35:35.684Z,66.96
2019-02-17T07:36:16.293Z,66.38
2019-02-17T07:36:56.885Z,66.48
2019-02-17T07:37:37.509Z,66.48
2019-02-17T07:38:18.096Z,66.09
2019-02-17T07:38:58.693Z,66.96
2019-02-17T07:39:39.312Z,66.77
2019-02-17T07:40:19.906Z,66.48
2019-02-17T07:41:00.507Z,66.48
2019-02-17T07:41:41.115Z,66.38
2019-02-17T07:42:21.743Z,66.38
2019-02-17T07:43:02.355Z,66.09
2019-02-17T07:43:42.979Z,66.29
2019-02-17T07:44:23.599Z,66.86
2019-02-17T07:45:04.206Z,66.48
2019-02-17T07:45:44.803Z,66.48
2019-02-17T07:46:25.414Z,66.38
2019-02-17T07:47:06.017Z,66.38
2019-02-17T07:47:46.643Z,66.29
2019-02-17T07:48:27.261Z,66.29
2019-02-17T07:49:07.901Z,66.09
2019-02-17T07:49:48.505Z,66.19
2019-02-17T07:50:29.141Z,66.48
2019-02-17T07:51:09.735Z,66.58
2019-02-17T07:51:50.327Z,66.48
2019-02-17T07:52:30.945Z,66.77
2019-02-17T07:53:11.554Z,66.38
2019-02-17T07:53:52.147Z,66.48
2019-02-17T07:54:32.747Z,66.29
2019-02-17T07:55:13.345Z,66.38
2019-02-17T07:55:53.960Z,66.38
2019-02-17T07:56:34.593Z,66.38
2019-02-17T07:57:15.210Z,66.29
2019-02-17T07:57:55.790Z,66.38
2019-02-17T07:58:36.393Z,66.48
2019-02-17T07:59:17.001Z,66.67
2019-02-17T07:59:57.599Z,66.77
2019-02-17T08:00:38.207Z,66.29
2019-02-17T08:01:18.801Z,65.81
2019-02-17T08:01:59.409Z,66.77
2019-02-17T08:02:40.032Z,66.29
2019-02-17T08:03:20.635Z,66.29
2019-02-17T08:04:01.237Z,66.38
2019-02-17T08:04:41.831Z,66.48
2019-02-17T08:05:22.449Z,66.58
2019-02-17T08:06:03.039Z,66.29
2019-02-17T08:06:43.635Z,66.77
2019-02-17T08:07:24.233Z,66.38
2019-02-17T08:08:04.821Z,66.29
2019-02-17T08:08:45.421Z,66.77
2019-02-17T08:09:26.033Z,65.81
2019-02-17T08:10:06.631Z,65.91
2019-02-17T08:10:47.230Z,66.67
2019-02-17T08:11:27.827Z,66.38
2019-02-17T08:12:08.437Z,66.29
2019-02-17T08:12:49.016Z,65.91
2019-02-17T08:13:29.622Z,65.91
2019-02-17T08:14:10.217Z,66
2019-02-17T08:14:50.971Z,66.29
2019-02-17T08:15:31.732Z,66.38
2019-02-17T08:16:12.364Z,66.29
2019-02-17T08:16:53.013Z,66.77
2019-02-17T08:17:33.709Z,65.91
2019-02-17T08:18:14.363Z,66.29
2019-02-17T08:18:54.953Z,66.29
2019-02-17T08:19:35.549Z,66.67
2019-02-17T08:20:16.141Z,65.91
2019-02-17T08:20:56.734Z,65.52
2019-02-17T08:21:37.323Z,65.62
2019-02-17T08:22:17.975Z,65.62
2019-02-17T08:22:58.580Z,66.29
2019-02-17T08:23:39.195Z,66.29
2019-02-17T08:24:19.785Z,65.91
2019-02-17T08:25:00.393Z,66
2019-02-17T08:25:40.985Z,66.09
2019-02-17T08:26:21.583Z,65.81
2019-02-17T08:27:04.526Z,66.19
2019-02-17T08:27:42.915Z,66.29
2019-02-17T08:28:23.601Z,65.91
2019-02-17T08:29:04.286Z,66.19
2019-02-17T08:29:44.837Z,66.48
2019-02-17T08:30:25.988Z,66
2019-02-17T08:31:06.587Z,66.29
2019-02-17T08:31:55.098Z,66.48
2019-02-17T08:32:27.769Z,65.91
2019-02-17T08:33:08.393Z,66.38
2019-02-17T08:34:58.401Z,66.19
2019-02-17T08:35:39.000Z,66.29
2019-02-17T08:36:19.601Z,66
2019-02-17T08:37:00.255Z,66.09
2019-02-17T08:37:40.809Z,66.09
2019-02-17T08:38:21.418Z,66
2019-02-17T08:39:02.029Z,65.91
2019-02-17T08:39:42.643Z,65.71
2019-02-17T08:40:23.235Z,66
2019-02-17T08:41:03.854Z,66.29
2019-02-17T08:41:44.435Z,65.91
2019-02-17T08:42:25.019Z,65.81
2019-02-17T08:43:05.611Z,65.91
2019-02-17T08:43:46.197Z,66.38
2019-02-17T08:44:27.401Z,65.42
2019-02-17T08:45:09.024Z,66.19
2019-02-17T08:45:49.563Z,66.19
2019-02-17T08:46:30.165Z,65.71